createdAt,value
2023-02-04T00:00:52.792Z,0.90
2023-02-04T00:01:52.810Z,0.96
2023-02-04T00:03:52.761Z,0.73
2023-02-04T00:04:52.753Z,0.63
2023-02-04T00:05:52.880Z,0.85
2023-02-04T00:06:52.746Z,0.68
2023-02-04T00:07:52.756Z,0.83
2023-02-04T00:08:52.798Z,0.70
2023-02-04T00:09:52.746Z,0.71
2023-02-04T00:10:52.707Z,0.96
2023-02-04T00:13:25.671Z,4.71
2023-02-04T00:14:21.238Z,1.21
2023-02-04T00:20:27.086Z,1.04
2023-02-04T00:21:26.560Z,1.06
2023-02-04T00:22:26.651Z,1.08
2023-02-04T00:23:26.589Z,0.95
2023-02-04T00:24:26.452Z,1.07
2023-02-04T00:25:26.461Z,1.09
2023-02-04T00:26:26.439Z,0.98
2023-02-04T00:27:26.467Z,1.50
2023-02-04T00:28:26.395Z,1.02
2023-02-04T00:29:26.426Z,1.58
2023-02-04T00:30:26.394Z,1.66
2023-02-04T00:31:26.495Z,1.83
2023-02-04T00:32:26.422Z,1.10
2023-02-04T00:33:26.349Z,1.61
2023-02-04T00:34:26.422Z,1.17
2023-02-04T00:35:26.365Z,1.19
2023-02-04T00:38:18.795Z,8.48
2023-02-04T01:27:31.137Z,0.70
2023-02-04T01:28:31.094Z,0.73
2023-02-04T01:29:31.112Z,0.87
2023-02-04T01:30:31.323Z,0.97
2023-02-04T01:31:31.495Z,0.86
2023-02-04T01:32:31.113Z,1.68
2023-02-04T01:33:31.064Z,1.20
2023-02-04T01:34:31.052Z,1.28
2023-02-04T01:35:31.076Z,1.36
2023-02-04T01:36:31.019Z,1.06
2023-02-04T01:37:31.044Z,0.92
2023-02-04T01:38:31.039Z,1.08
2023-02-04T01:39:31.065Z,0.69
2023-02-04T01:40:31.451Z,0.94
2023-02-04T01:41:31.093Z,0.94
2023-02-04T01:42:31.031Z,0.84
2023-02-04T01:43:31.107Z,0.92
2023-02-04T01:44:31.110Z,0.89
2023-02-04T01:45:31.182Z,1.10
2023-02-04T01:46:31.190Z,1.04
2023-02-04T01:47:31.236Z,0.95
2023-02-04T01:48:31.184Z,0.91
2023-02-04T01:49:31.252Z,0.95
2023-02-04T01:50:31.616Z,0.62
2023-02-04T01:51:31.354Z,0.61
2023-02-04T01:52:31.386Z,0.63
2023-02-04T01:53:31.416Z,0.70
2023-02-04T01:54:31.469Z,0.68
2023-02-04T01:55:31.566Z,0.66
2023-02-04T02:07:07.338Z,4.71
2023-02-04T02:09:40.022Z,4.71
2023-02-04T02:18:16.492Z,2.85
2023-02-04T02:19:16.557Z,1.08
2023-02-04T02:20:15.610Z,0.65
2023-02-04T02:21:15.593Z,0.54
2023-02-04T02:22:16.420Z,1.16
2023-02-04T02:24:44.489Z,4.71
2023-02-04T02:25:43.753Z,0.72
2023-02-04T02:26:44.521Z,0.58
2023-02-04T02:29:03.605Z,0.92
2023-02-04T02:30:03.173Z,0.80
2023-02-04T02:31:03.385Z,0.67
2023-02-04T02:32:03.361Z,0.55
2023-02-04T02:33:04.688Z,0.81
2023-02-04T02:34:03.111Z,0.69
2023-02-04T02:35:03.093Z,0.68
2023-02-04T02:36:03.120Z,0.61
2023-02-04T02:38:24.583Z,0.53
2023-02-04T02:39:23.589Z,0.67
2023-02-04T02:40:23.446Z,0.41
2023-02-04T02:41:23.281Z,0.37
2023-02-04T02:42:23.336Z,0.46
2023-02-04T02:43:24.960Z,0.63
2023-02-04T02:44:23.319Z,1.34
2023-02-04T02:45:23.334Z,1.16
2023-02-04T02:46:24.536Z,1.01
2023-02-04T02:47:23.522Z,0.80
2023-02-04T02:48:24.683Z,0.40
2023-02-04T02:49:24.518Z,0.78
2023-02-04T02:50:23.906Z,0.52
2023-02-04T02:51:23.556Z,0.50
2023-02-04T02:52:23.727Z,0.32
2023-02-04T02:53:24.050Z,0.47
2023-02-04T02:54:24.156Z,0.40
2023-02-04T02:55:23.785Z,0.37
2023-02-04T02:56:23.975Z,0.43
2023-02-04T02:57:24.715Z,0.84
2023-02-04T02:58:24.536Z,0.91
2023-02-04T02:59:24.218Z,1.50
2023-02-04T03:00:24.250Z,1.29
2023-02-04T03:01:25.269Z,0.98
2023-02-04T03:02:24.134Z,0.47
2023-02-04T03:03:24.308Z,0.64
2023-02-04T03:04:25.434Z,0.57
2023-02-04T03:05:24.291Z,0.75
2023-02-04T03:06:25.209Z,0.58
2023-02-04T03:07:24.247Z,0.65
2023-02-04T03:08:24.225Z,0.61
2023-02-04T03:09:24.231Z,0.49
2023-02-04T03:10:25.166Z,1.31
2023-02-04T03:11:25.378Z,0.60
2023-02-04T03:12:24.517Z,0.54
2023-02-04T03:13:24.383Z,0.71
2023-02-04T03:14:25.484Z,0.74
2023-02-04T03:15:24.507Z,0.69
2023-02-04T03:16:24.547Z,0.60
2023-02-04T03:17:25.609Z,0.75
2023-02-04T03:18:24.754Z,0.37
2023-02-04T03:19:24.712Z,0.50
2023-02-04T03:20:24.780Z,0.49
2023-02-04T03:21:25.079Z,0.55
2023-02-04T03:22:25.014Z,0.64
2023-02-04T03:23:24.972Z,0.58
2023-02-04T03:24:24.940Z,0.64
2023-02-04T03:25:25.237Z,0.44
2023-02-04T03:26:26.143Z,0.59
2023-02-04T03:27:24.953Z,0.51
2023-02-04T03:28:25.079Z,0.45
2023-02-04T03:29:25.104Z,0.53
2023-02-04T03:30:25.189Z,0.51
2023-02-04T03:31:25.299Z,0.33
2023-02-04T03:32:25.324Z,0.45
2023-02-04T03:33:25.284Z,0.43
2023-02-04T03:34:25.375Z,0.49
2023-02-04T03:35:25.486Z,0.55
2023-02-04T03:36:25.398Z,0.41
2023-02-04T03:37:25.466Z,0.51
2023-02-04T03:38:25.580Z,0.58
2023-02-04T03:39:25.483Z,0.49
2023-02-04T03:40:25.487Z,0.41
2023-02-04T03:41:25.475Z,0.42
2023-02-04T03:42:25.490Z,0.36
2023-02-04T03:43:25.684Z,0.59
2023-02-04T03:44:25.845Z,0.51
2023-02-04T03:45:28.525Z,0.58
2023-02-04T03:46:26.672Z,0.60
2023-02-04T03:47:25.687Z,0.76
2023-02-04T03:48:25.744Z,0.45
2023-02-04T03:49:25.772Z,0.55
2023-02-04T03:50:26.720Z,0.54
2023-02-04T03:51:26.673Z,0.45
2023-02-04T03:52:25.760Z,0.33
2023-02-04T03:53:25.712Z,0.40
2023-02-04T03:54:25.757Z,0.52
2023-02-04T03:55:25.786Z,0.35
2023-02-04T03:56:25.823Z,0.46
2023-02-04T03:57:25.839Z,0.45
2023-02-04T03:58:25.721Z,0.71
2023-02-04T03:59:26.794Z,0.68
2023-02-04T04:00:25.816Z,0.62
2023-02-04T04:01:26.071Z,0.70
2023-02-04T04:02:25.530Z,0.82
2023-02-04T04:03:25.670Z,0.72
2023-02-04T04:04:25.752Z,0.81
2023-02-04T04:05:26.773Z,1.30
2023-02-04T04:06:25.623Z,1.24
2023-02-04T04:07:26.601Z,1.25
2023-02-04T04:08:25.562Z,0.65
2023-02-04T04:09:25.733Z,0.98
2023-02-04T04:10:25.644Z,0.74
2023-02-04T04:11:25.833Z,0.82
2023-02-04T04:12:25.771Z,0.96
2023-02-04T04:13:26.674Z,0.67
2023-02-04T04:14:25.588Z,0.50
2023-02-04T04:15:25.782Z,0.56
2023-02-04T04:16:25.663Z,0.54
2023-02-04T04:17:25.730Z,0.80
2023-02-04T04:18:25.819Z,0.57
2023-02-04T04:19:25.685Z,0.52
2023-02-04T04:20:25.811Z,0.75
2023-02-04T04:21:25.838Z,0.75
2023-02-04T04:22:26.896Z,1.12
2023-02-04T04:23:26.808Z,0.85
2023-02-04T04:24:25.880Z,0.64
2023-02-04T04:25:26.841Z,0.70
2023-02-04T04:26:25.970Z,0.76
2023-02-04T04:27:25.959Z,1.08
2023-02-04T04:28:25.965Z,1.08
2023-02-04T04:29:26.992Z,1.20
2023-02-04T04:30:26.230Z,1.60
2023-02-04T04:31:26.140Z,0.89
2023-02-04T04:32:26.155Z,0.51
2023-02-04T04:33:26.304Z,0.89
2023-02-04T04:34:26.333Z,0.73
2023-02-04T04:35:26.171Z,0.51
2023-02-04T04:36:26.149Z,0.42
2023-02-04T04:37:27.036Z,0.18
2023-02-04T04:38:26.277Z,0.22
2023-02-04T04:39:26.507Z,0.24
2023-02-04T04:40:26.689Z,0.35
2023-02-04T04:41:26.513Z,0.20
2023-02-04T04:42:27.540Z,0.16
2023-02-04T04:43:27.153Z,0.25
2023-02-04T04:44:26.748Z,0.25
2023-02-04T04:45:26.604Z,0.18
2023-02-04T04:46:26.908Z,0.23
2023-02-04T04:47:26.826Z,0.25
2023-02-04T04:48:27.061Z,0.30
2023-02-04T04:49:26.901Z,0.17
2023-02-04T04:50:27.153Z,0.18
2023-02-04T04:51:27.094Z,0.18
2023-02-04T04:52:27.253Z,0.45
2023-02-04T04:53:28.257Z,0.78
2023-02-04T04:54:27.405Z,0.34
2023-02-04T04:55:27.236Z,0.44
2023-02-04T04:56:27.228Z,0.43
2023-02-04T04:57:28.639Z,0.57
2023-02-04T04:58:29.696Z,0.86
2023-02-04T04:59:27.413Z,0.83
2023-02-04T05:00:27.308Z,0.95
2023-02-04T05:01:27.309Z,0.91
2023-02-04T05:02:28.257Z,0.66
2023-02-04T05:03:27.412Z,0.92
2023-02-04T05:04:27.318Z,0.93
2023-02-04T05:05:27.245Z,0.81
2023-02-04T05:06:27.402Z,1.31
2023-02-04T05:07:27.539Z,0.85
2023-02-04T05:08:27.263Z,0.99
2023-02-04T05:09:27.239Z,1.64
2023-02-04T05:10:27.200Z,1.40
2023-02-04T05:11:27.423Z,1.12
2023-02-04T05:12:27.338Z,1.07
2023-02-04T05:13:27.398Z,0.99
2023-02-04T05:14:27.237Z,0.89
2023-02-04T05:15:27.292Z,1.18
2023-02-04T05:16:27.478Z,1.08
2023-02-04T05:17:28.699Z,1.13
2023-02-04T05:18:27.349Z,0.95
2023-02-04T05:19:28.361Z,0.80
2023-02-04T05:20:28.351Z,1.02
2023-02-04T05:21:27.143Z,0.49
2023-02-04T05:22:27.536Z,0.91
2023-02-04T05:23:27.305Z,0.90
2023-02-04T05:24:27.109Z,0.77
2023-02-04T05:25:27.149Z,0.62
2023-02-04T05:26:30.688Z,0.78
2023-02-04T05:27:27.300Z,0.59
2023-02-04T05:28:28.492Z,0.65
2023-02-04T05:29:28.201Z,0.84
2023-02-04T05:30:27.214Z,0.65
2023-02-04T05:31:27.316Z,0.58
2023-02-04T05:32:27.165Z,0.89
2023-02-04T05:33:27.246Z,1.11
2023-02-04T05:34:27.076Z,1.16
2023-02-04T05:35:27.149Z,0.82
2023-02-04T05:36:27.201Z,1.14
2023-02-04T05:37:27.276Z,0.96
2023-02-04T05:38:28.147Z,1.29
2023-02-04T05:39:27.820Z,1.19
2023-02-04T05:40:27.577Z,1.24
2023-02-04T05:41:27.214Z,1.29
2023-02-04T05:42:27.248Z,0.75
2023-02-04T05:43:27.394Z,0.98
2023-02-04T05:44:27.602Z,1.22
2023-02-04T05:45:27.164Z,1.31
2023-02-04T05:46:27.176Z,1.43
2023-02-04T05:47:27.245Z,1.18
2023-02-04T05:48:27.233Z,1.14
2023-02-04T05:49:27.220Z,1.10
2023-02-04T05:50:28.357Z,1.12
2023-02-04T05:51:27.323Z,1.47
2023-02-04T05:52:27.302Z,1.30
2023-02-04T05:53:28.838Z,1.22
2023-02-04T06:09:24.771Z,4.71
2023-02-04T06:10:25.141Z,2.23
2023-02-04T06:11:24.235Z,1.65
2023-02-04T06:12:24.028Z,1.64
2023-02-04T06:13:24.709Z,1.67
2023-02-04T06:14:23.802Z,1.36
2023-02-04T06:15:24.991Z,2.06
2023-02-04T06:16:24.431Z,1.67
2023-02-04T06:17:24.530Z,1.45
2023-02-04T06:18:24.472Z,1.21
2023-02-04T06:19:24.875Z,1.36
2023-02-04T06:20:24.325Z,1.36
2023-02-04T06:21:24.692Z,1.27
2023-02-04T06:22:24.738Z,1.26
2023-02-04T06:23:23.907Z,1.67
2023-02-04T06:24:24.186Z,1.77
2023-02-04T06:25:24.315Z,1.31
2023-02-04T06:26:23.979Z,1.42
2023-02-04T06:27:23.954Z,1.60
2023-02-04T06:28:24.220Z,1.85
2023-02-04T06:29:23.778Z,2.09
2023-02-04T06:30:24.098Z,2.39
2023-02-04T06:31:24.183Z,3.82
2023-02-04T06:32:24.222Z,4.64
2023-02-04T06:33:24.089Z,4.84
2023-02-04T06:34:23.910Z,3.00
2023-02-04T06:35:23.840Z,3.51
2023-02-04T06:36:23.855Z,2.76
2023-02-04T06:37:24.478Z,2.78
2023-02-04T06:38:23.935Z,2.83
2023-02-04T06:39:23.821Z,2.78
2023-02-04T06:40:23.977Z,2.71
2023-02-04T06:41:24.211Z,2.56
2023-02-04T06:42:24.965Z,2.87
2023-02-04T06:43:25.142Z,2.89
2023-02-04T06:44:24.893Z,2.55
2023-02-04T06:45:24.148Z,2.55
2023-02-04T06:46:24.164Z,2.97
2023-02-04T06:47:23.935Z,3.44
2023-02-04T06:48:24.224Z,2.86
2023-02-04T06:49:24.299Z,3.38
2023-02-04T06:50:25.192Z,2.65
2023-02-04T06:51:24.518Z,3.09
2023-02-04T06:52:24.300Z,3.43
2023-02-04T06:53:24.304Z,3.42
2023-02-04T06:54:24.348Z,3.23
2023-02-04T06:55:24.696Z,3.19
2023-02-04T06:56:24.310Z,2.99
2023-02-04T06:57:24.574Z,2.21
2023-02-04T06:58:24.858Z,2.81
2023-02-04T06:59:24.703Z,2.85
2023-02-04T07:00:25.440Z,2.34
2023-02-04T07:01:24.851Z,2.60
2023-02-04T07:02:24.511Z,2.65
2023-02-04T07:03:25.206Z,3.26
2023-02-04T07:04:26.228Z,3.19
2023-02-04T07:05:25.581Z,3.20
2023-02-04T07:06:24.433Z,2.92
2023-02-04T07:07:24.534Z,3.35
2023-02-04T07:08:24.472Z,2.86
2023-02-04T07:09:24.827Z,3.06
2023-02-04T07:10:25.639Z,3.02
2023-02-04T07:11:24.655Z,3.44
2023-02-04T07:12:25.422Z,3.72
2023-02-04T07:13:24.657Z,3.18
2023-02-04T07:14:25.099Z,3.16
2023-02-04T07:15:25.337Z,3.25
2023-02-04T07:16:25.412Z,3.84
2023-02-04T07:17:26.935Z,3.30
2023-02-04T07:18:24.973Z,2.65
2023-02-04T07:19:25.468Z,2.98
2023-02-04T07:20:24.482Z,3.09
2023-02-04T07:21:24.350Z,4.00
2023-02-04T07:22:24.361Z,4.02
2023-02-04T07:23:24.522Z,4.15
2023-02-04T07:24:24.804Z,3.20
2023-02-04T07:25:24.688Z,2.79
2023-02-04T07:26:24.825Z,2.49
2023-02-04T07:27:25.597Z,2.27
2023-02-04T07:32:04.528Z,2.75
2023-02-04T07:33:04.505Z,3.11
2023-02-04T07:34:04.216Z,2.92
2023-02-04T07:35:04.611Z,2.85
2023-02-04T07:38:43.773Z,3.00
2023-02-04T07:39:43.462Z,3.19
2023-02-04T07:40:43.718Z,4.66
2023-02-04T07:41:43.520Z,4.40
2023-02-04T07:42:43.460Z,3.99
2023-02-04T07:43:43.428Z,3.44
2023-02-04T07:44:43.337Z,6.60
2023-02-04T07:45:43.352Z,5.28
2023-02-04T07:46:43.479Z,4.57
2023-02-04T07:49:04.007Z,3.03
2023-02-04T07:50:03.777Z,2.79
2023-02-04T07:55:05.053Z,7.11
2023-02-04T07:56:04.476Z,3.30
2023-02-04T07:57:04.631Z,3.41
2023-02-04T07:58:05.015Z,4.21
2023-02-04T07:59:04.483Z,3.47
2023-02-04T08:00:04.430Z,3.79
2023-02-04T08:01:04.463Z,3.65
2023-02-04T08:02:04.728Z,3.46
2023-02-04T08:03:04.486Z,3.61
2023-02-04T09:29:25.457Z,1.46
2023-02-04T09:30:25.627Z,2.05
2023-02-04T09:31:25.518Z,1.75
2023-02-04T09:32:25.330Z,1.84
2023-02-04T09:33:25.380Z,1.94
2023-02-04T09:34:25.351Z,1.97
2023-02-04T09:35:25.383Z,1.71
2023-02-04T09:36:25.354Z,2.01
2023-02-04T09:37:25.318Z,1.86
2023-02-04T09:38:25.337Z,1.37
2023-02-04T09:39:25.393Z,1.73
2023-02-04T09:40:25.290Z,2.05
2023-02-04T09:41:25.294Z,1.57
2023-02-04T09:42:25.313Z,1.57
2023-02-04T09:43:25.304Z,2.05
2023-02-04T09:44:25.317Z,1.52
2023-02-04T09:45:25.273Z,1.31
2023-02-04T09:46:25.342Z,2.17
2023-02-04T09:47:25.276Z,2.07
2023-02-04T09:48:25.255Z,1.99
2023-02-04T09:49:25.395Z,2.15
2023-02-04T09:50:25.215Z,2.06
2023-02-04T09:51:25.224Z,1.65
2023-02-04T09:52:25.228Z,1.96
2023-02-04T09:53:25.228Z,1.55
2023-02-04T09:54:25.272Z,2.53
2023-02-04T09:55:25.210Z,2.19
2023-02-04T09:56:25.188Z,1.67
2023-02-04T09:57:25.227Z,2.09
2023-02-04T09:58:25.186Z,2.31
2023-02-04T09:59:25.164Z,2.39
2023-02-04T10:00:25.154Z,2.02
2023-02-04T10:01:25.140Z,1.81
2023-02-04T10:02:25.145Z,2.07
2023-02-04T10:03:25.198Z,1.35
2023-02-04T10:04:25.136Z,1.85
2023-02-04T10:05:25.161Z,1.36
2023-02-04T10:06:25.287Z,1.41
2023-02-04T10:07:25.165Z,1.34
2023-02-04T10:08:25.080Z,2.07
2023-02-04T10:09:25.317Z,1.64
2023-02-04T10:10:25.102Z,1.57
2023-02-04T10:11:25.107Z,1.43
2023-02-04T10:12:25.095Z,1.79
2023-02-04T10:13:25.083Z,1.42
2023-02-04T10:14:25.102Z,1.73
2023-02-04T10:15:25.045Z,1.73
2023-02-04T10:16:25.087Z,1.92
2023-02-04T10:17:25.065Z,2.52
2023-02-04T10:18:25.508Z,1.65
2023-02-04T10:19:25.158Z,2.15
2023-02-04T10:20:25.091Z,2.21
2023-02-04T10:21:25.071Z,2.15
2023-02-04T10:22:25.071Z,2.97
2023-02-04T10:23:25.010Z,2.13
2023-02-04T10:24:25.068Z,2.04
2023-02-04T10:25:25.083Z,2.39
2023-02-04T10:26:25.158Z,2.48
2023-02-04T10:27:25.211Z,2.70
2023-02-04T10:28:25.254Z,2.43
2023-02-04T10:29:25.325Z,2.34
2023-02-04T10:30:26.424Z,1.83
2023-02-04T10:31:25.354Z,1.71
2023-02-04T10:32:25.267Z,1.73
2023-02-04T10:33:25.335Z,1.97
2023-02-04T10:34:25.331Z,2.34
2023-02-04T10:35:25.344Z,1.89
2023-02-04T10:36:25.354Z,1.46
2023-02-04T10:37:25.377Z,1.81
2023-02-04T10:41:33.741Z,4.57
2023-02-04T10:42:33.722Z,2.58
2023-02-04T10:43:33.116Z,2.18
2023-02-04T10:44:33.202Z,2.06
2023-02-04T10:45:33.402Z,2.07
2023-02-04T10:46:33.140Z,1.93
2023-02-04T10:47:33.133Z,1.63
2023-02-04T10:48:33.110Z,1.26
2023-02-04T10:49:33.187Z,1.50
2023-02-04T10:50:33.448Z,1.86
2023-02-04T10:51:33.171Z,1.28
2023-02-04T10:52:33.154Z,1.54
2023-02-04T10:53:33.160Z,1.78
2023-02-04T10:54:33.096Z,1.72
2023-02-04T10:55:33.084Z,1.42
2023-02-04T10:56:33.108Z,1.75
2023-02-04T10:57:33.105Z,1.38
2023-02-04T10:58:33.100Z,1.99
2023-02-04T10:59:33.225Z,1.46
2023-02-04T11:03:53.493Z,1.91
2023-02-04T11:04:53.064Z,1.61
2023-02-04T11:05:53.715Z,1.99
2023-02-04T11:06:52.827Z,1.82
2023-02-04T11:07:53.286Z,1.60
2023-02-04T11:08:52.681Z,2.25
2023-02-04T11:09:52.602Z,1.44
2023-02-04T11:10:52.629Z,2.14
2023-02-04T11:11:52.596Z,1.59
2023-02-04T11:12:52.586Z,1.57
2023-02-04T11:13:52.630Z,1.88
2023-02-04T11:14:52.587Z,1.86
2023-02-04T11:15:52.670Z,2.89
2023-02-04T11:16:52.681Z,1.63
2023-02-04T11:17:52.572Z,1.71
2023-02-04T11:18:52.574Z,1.31
2023-02-04T11:25:55.050Z,1.67
2023-02-04T12:21:36.032Z,1.68
2023-02-04T12:22:36.028Z,2.08
2023-02-04T12:23:36.094Z,2.01
2023-02-04T12:24:36.100Z,1.52
2023-02-04T12:25:36.158Z,2.08
2023-02-04T12:26:36.169Z,1.66
2023-02-04T12:27:36.238Z,2.31
2023-02-04T12:28:36.283Z,1.53
2023-02-04T12:29:36.221Z,1.75
2023-02-04T12:30:36.293Z,1.49
2023-02-04T12:31:36.429Z,1.87
2023-02-04T12:32:36.420Z,2.11
2023-02-04T12:33:36.422Z,1.87
2023-02-04T12:34:36.456Z,1.66
2023-02-04T12:35:36.535Z,1.54
2023-02-04T12:36:36.536Z,1.45
2023-02-04T12:37:36.559Z,1.61
2023-02-04T12:38:36.614Z,1.51
2023-02-04T12:39:36.798Z,1.58
2023-02-04T12:40:36.700Z,1.90
2023-02-04T12:41:36.726Z,1.53
2023-02-04T12:42:36.745Z,1.23
2023-02-04T12:43:36.765Z,1.08
2023-02-04T12:44:36.841Z,1.61
2023-02-04T12:45:36.848Z,1.43
2023-02-04T12:46:36.940Z,1.54
2023-02-04T12:47:36.959Z,1.79
2023-02-04T12:48:37.018Z,1.80
2023-02-04T12:49:36.970Z,1.21
2023-02-04T12:50:36.922Z,1.91
2023-02-04T12:51:37.026Z,1.94
2023-02-04T12:52:37.012Z,1.50
2023-02-04T12:53:37.023Z,1.55
2023-02-04T12:54:37.070Z,1.60
2023-02-04T12:55:37.180Z,1.56
2023-02-04T12:56:37.187Z,1.19
2023-02-04T12:57:37.293Z,1.98
2023-02-04T12:58:37.533Z,1.76
2023-02-04T12:59:37.240Z,1.38
2023-02-04T13:00:37.314Z,1.35
2023-02-04T13:01:37.392Z,1.58
2023-02-04T13:02:37.406Z,1.19
2023-02-04T13:03:37.413Z,1.71
2023-02-04T13:04:37.488Z,1.63
2023-02-04T13:05:37.504Z,1.12
2023-02-04T13:06:37.553Z,1.84
2023-02-04T13:07:37.572Z,1.46
2023-02-04T13:08:37.633Z,1.36
2023-02-04T13:09:37.602Z,1.77
2023-02-04T13:10:37.703Z,1.62
2023-02-04T13:11:37.839Z,1.36
2023-02-04T13:12:37.761Z,2.01
2023-02-04T13:13:37.791Z,1.29
2023-02-04T13:14:37.775Z,1.69
2023-02-04T13:15:37.806Z,2.16
2023-02-04T13:16:37.850Z,1.83
2023-02-04T13:17:37.859Z,1.60
2023-02-04T13:18:37.896Z,1.64
2023-02-04T13:19:37.963Z,1.80
2023-02-04T13:20:38.069Z,1.50
2023-02-04T13:21:38.055Z,2.47
2023-02-04T13:22:38.067Z,2.02
2023-02-04T13:23:38.114Z,1.50
2023-02-04T13:24:38.222Z,1.80
2023-02-04T14:58:06.673Z,1.95
2023-02-04T14:59:06.706Z,1.91
2023-02-04T15:09:26.813Z,2.93
2023-02-04T15:10:27.510Z,2.81
2023-02-04T15:11:26.722Z,2.38
2023-02-04T15:12:26.785Z,2.05
2023-02-04T15:13:27.037Z,2.12
2023-02-04T15:14:27.370Z,2.18
2023-02-04T15:15:26.675Z,1.99
2023-02-04T15:16:26.787Z,2.50
2023-02-04T15:17:26.654Z,2.82
2023-02-04T15:18:26.711Z,2.67
2023-02-04T15:19:26.649Z,2.42
2023-02-04T15:20:42.100Z,2.30
2023-02-04T15:21:26.627Z,2.51
2023-02-04T15:22:26.662Z,2.62
2023-02-04T15:23:26.587Z,2.67
2023-02-04T15:24:26.668Z,3.28
2023-02-04T15:25:26.588Z,3.42
2023-02-04T15:26:26.649Z,3.20
2023-02-04T15:27:42.019Z,3.00
2023-02-04T15:28:27.156Z,2.95
2023-02-04T15:33:26.577Z,3.66
2023-02-04T15:34:26.569Z,3.41
2023-02-04T15:35:26.551Z,3.16
2023-02-04T15:36:26.537Z,2.96
2023-02-04T15:37:26.538Z,2.70
2023-02-04T15:38:26.556Z,2.92
2023-02-04T15:39:26.538Z,3.02
2023-02-04T15:40:26.521Z,2.67
2023-02-04T15:42:46.614Z,3.10
2023-02-04T15:43:46.874Z,2.52
2023-02-04T15:44:46.577Z,2.97
2023-02-04T15:45:46.487Z,3.13
2023-02-04T15:46:46.594Z,2.82
2023-02-04T15:47:46.488Z,3.00
2023-02-04T15:48:46.460Z,2.74
2023-02-04T15:49:46.499Z,3.49
2023-02-04T15:50:46.506Z,2.93
2023-02-04T15:51:46.494Z,2.42
2023-02-04T15:52:46.478Z,2.80
2023-02-04T15:53:46.497Z,3.44
2023-02-04T16:02:46.513Z,2.95
2023-02-04T16:03:46.416Z,2.12
2023-02-04T16:04:46.366Z,2.83
2023-02-04T16:05:46.421Z,3.15
2023-02-04T16:06:57.902Z,2.83
2023-02-04T16:07:47.350Z,3.27
2023-02-04T16:08:46.346Z,3.81
2023-02-04T16:09:46.401Z,3.32
2023-02-04T16:10:46.354Z,3.01
2023-02-04T16:11:46.317Z,3.36
2023-02-04T16:12:46.325Z,3.83
2023-02-04T16:49:06.245Z,5.84
2023-02-04T16:50:06.282Z,6.42
2023-02-04T16:51:06.198Z,4.82
2023-02-04T16:52:06.211Z,5.00
2023-02-04T16:53:06.256Z,4.97
2023-02-04T16:54:06.213Z,5.63
2023-02-04T16:55:06.240Z,6.05
2023-02-04T16:56:06.206Z,5.23
2023-02-04T16:57:06.143Z,5.20
2023-02-04T16:58:06.134Z,5.12
2023-02-04T16:59:06.170Z,4.85
2023-02-04T17:00:06.176Z,5.41
2023-02-04T17:01:06.178Z,4.82
2023-02-04T17:02:06.243Z,5.73
2023-02-04T17:03:06.210Z,5.04
2023-02-04T17:04:06.144Z,6.42
2023-02-04T17:05:06.100Z,7.51
2023-02-04T17:06:06.081Z,6.77
2023-02-04T17:07:06.099Z,6.09
2023-02-04T17:08:06.117Z,5.58
2023-02-04T17:09:06.338Z,6.14
2023-02-04T17:10:06.083Z,5.93
2023-02-04T17:11:06.102Z,6.14
2023-02-04T17:12:06.768Z,4.67
2023-02-04T17:13:06.047Z,6.90
2023-02-04T17:14:06.092Z,6.47
2023-02-04T17:15:06.060Z,6.05
2023-02-04T17:16:06.090Z,4.47
2023-02-04T17:17:06.135Z,5.01
2023-02-04T17:18:06.081Z,5.82
2023-02-04T17:19:06.131Z,6.14
2023-02-04T17:20:06.163Z,6.00
2023-02-04T17:21:06.248Z,5.73
2023-02-04T17:22:06.229Z,5.28
2023-02-04T17:23:06.296Z,5.95
2023-02-04T17:24:06.404Z,5.32
2023-02-04T17:25:06.348Z,4.83
2023-02-04T17:26:06.344Z,5.13
2023-02-04T17:28:26.694Z,5.22
2023-02-04T17:29:27.186Z,5.40
2023-02-04T17:30:26.671Z,5.55
2023-02-04T17:31:26.843Z,4.81
2023-02-04T17:32:26.589Z,4.78
2023-02-04T17:33:26.565Z,5.19
2023-02-04T17:34:26.586Z,5.36
2023-02-04T17:35:26.574Z,5.14
2023-02-04T17:36:27.046Z,5.53
2023-02-04T17:37:26.547Z,6.12
2023-02-04T17:38:28.090Z,6.37
2023-02-04T17:39:26.576Z,5.98
2023-02-04T17:43:08.334Z,7.29
2023-02-04T17:44:07.134Z,6.35
2023-02-04T17:45:07.037Z,6.58
2023-02-04T17:48:48.221Z,6.98
2023-02-04T17:51:07.439Z,6.38
2023-02-04T17:52:07.809Z,6.81
2023-02-04T17:53:07.286Z,6.94
2023-02-04T17:54:07.136Z,6.11
2023-02-04T17:55:07.065Z,6.96
2023-02-04T17:56:07.014Z,7.94
2023-02-04T17:57:07.007Z,6.52
2023-02-04T17:58:07.028Z,6.33
2023-02-04T18:00:54.997Z,6.61
2023-02-04T18:01:55.397Z,6.80
2023-02-04T18:02:54.880Z,7.19
2023-02-04T18:03:54.811Z,7.64
2023-02-04T18:04:54.833Z,7.06
2023-02-04T18:05:54.781Z,6.35
2023-02-04T18:06:54.780Z,6.84
2023-02-04T18:07:54.762Z,7.20
2023-02-04T18:08:54.767Z,7.62
2023-02-04T18:09:54.777Z,7.36
2023-02-04T18:10:54.784Z,7.48
2023-02-04T18:11:54.746Z,7.52
2023-02-04T18:12:54.736Z,7.02
2023-02-04T18:13:54.741Z,7.49
2023-02-04T18:14:54.731Z,6.62
2023-02-04T18:15:54.740Z,7.17
2023-02-04T18:16:54.727Z,7.31
2023-02-04T18:17:54.724Z,7.32
2023-02-04T18:18:54.720Z,6.92
2023-02-04T18:19:54.814Z,6.32
2023-02-04T18:20:55.130Z,6.79
2023-02-04T18:21:54.697Z,6.94
2023-02-04T18:22:54.708Z,7.39
2023-02-04T18:23:54.724Z,7.42
2023-02-04T18:24:54.718Z,6.53
2023-02-04T18:25:54.770Z,6.69
2023-02-04T18:26:54.804Z,6.89
2023-02-04T18:29:14.742Z,7.79
2023-02-04T18:30:15.479Z,7.27
2023-02-04T18:31:14.807Z,7.31
2023-02-04T18:32:14.657Z,8.28
2023-02-04T18:33:14.684Z,8.44
2023-02-04T18:34:15.279Z,8.57
2023-02-04T18:35:15.264Z,10.21
2023-02-04T18:36:14.888Z,10.11
2023-02-04T18:37:15.095Z,8.60
2023-02-04T18:38:15.048Z,8.94
2023-02-04T18:39:15.266Z,8.03
2023-02-04T18:40:15.235Z,8.70
2023-02-04T18:41:15.117Z,6.92
2023-02-04T18:42:15.149Z,7.97
2023-02-04T18:43:15.141Z,8.72
2023-02-04T19:07:35.650Z,8.99
2023-02-04T19:08:35.456Z,9.20
2023-02-04T19:09:35.604Z,8.52
2023-02-04T19:10:36.792Z,9.17
2023-02-04T19:11:35.296Z,9.59
2023-02-04T19:12:35.336Z,9.72
2023-02-04T19:13:35.403Z,11.17
2023-02-04T19:14:35.302Z,12.54
2023-02-04T19:15:35.552Z,13.78
2023-02-04T19:16:35.384Z,13.71
2023-02-04T19:17:35.552Z,13.67
2023-02-04T19:18:50.531Z,8.67
2023-02-04T19:19:35.402Z,7.59
2023-02-04T19:20:35.264Z,7.68
2023-02-04T19:42:55.470Z,6.58
2023-02-04T19:43:55.432Z,6.95
2023-02-04T19:44:55.541Z,7.13
2023-02-04T19:45:55.449Z,7.83
2023-02-04T19:46:55.495Z,7.42
2023-02-04T19:47:55.384Z,7.56
2023-02-04T19:48:55.394Z,7.74
2023-02-04T19:49:55.442Z,6.77
2023-02-04T19:50:55.383Z,7.79
2023-02-04T19:51:55.703Z,7.09
2023-02-04T19:52:55.413Z,7.56
2023-02-04T19:53:55.384Z,7.11
2023-02-04T19:54:55.344Z,8.40
2023-02-04T19:55:55.351Z,7.00
2023-02-04T19:56:55.333Z,7.68
2023-02-04T19:57:55.322Z,9.16
2023-02-04T19:58:55.328Z,9.30
2023-02-04T19:59:55.309Z,9.62
2023-02-04T20:00:55.378Z,10.53
2023-02-04T20:01:55.275Z,9.72
2023-02-04T20:02:55.455Z,14.33
2023-02-04T20:03:55.275Z,18.43
2023-02-04T20:21:34.770Z,10.01
2023-02-04T20:22:34.727Z,10.01
2023-02-04T20:23:34.716Z,10.67
2023-02-04T20:24:34.713Z,11.14
2023-02-04T20:25:35.019Z,11.99
2023-02-04T20:26:34.990Z,10.58
2023-02-04T20:27:34.673Z,10.91
2023-02-04T20:28:34.709Z,9.60
2023-02-04T20:29:34.703Z,9.50
2023-02-04T20:33:45.052Z,7.15
2023-02-04T20:34:45.901Z,6.71
2023-02-04T20:37:04.238Z,5.13
2023-02-04T20:38:04.370Z,6.73
2023-02-04T20:39:04.189Z,8.05
2023-02-04T20:41:25.845Z,8.81
2023-02-04T20:43:44.615Z,9.97
2023-02-04T20:44:44.234Z,9.73
2023-02-04T20:45:44.325Z,8.97
2023-02-04T20:46:44.319Z,9.05
2023-02-04T20:47:44.235Z,7.41
2023-02-04T20:48:44.145Z,9.02
2023-02-04T20:49:44.168Z,9.07
2023-02-04T20:50:44.154Z,8.38
2023-02-04T20:51:44.181Z,8.79
2023-02-04T20:52:44.169Z,8.10
2023-02-04T20:53:44.106Z,9.11
2023-02-04T20:54:44.131Z,7.96
2023-02-04T20:55:44.135Z,8.70
2023-02-04T20:56:44.086Z,8.02
2023-02-04T20:57:44.159Z,8.05
2023-02-04T20:58:44.202Z,10.36
2023-02-04T20:59:44.224Z,8.82
2023-02-04T21:00:44.319Z,9.03
2023-02-04T21:01:44.396Z,9.57
2023-02-04T21:02:44.385Z,9.45
2023-02-04T21:03:44.400Z,8.77
2023-02-04T21:04:44.535Z,9.33
2023-02-04T21:07:04.377Z,9.27
2023-02-04T21:08:04.542Z,9.73
2023-02-04T21:09:04.257Z,9.90
2023-02-04T21:10:04.316Z,10.22
2023-02-04T21:11:04.276Z,10.43
2023-02-04T21:12:04.265Z,11.19
2023-02-04T21:13:04.310Z,9.59
2023-02-04T21:14:04.232Z,9.53
2023-02-04T21:15:04.240Z,10.16
2023-02-04T21:16:04.268Z,10.09
2023-02-04T21:17:04.209Z,10.15
2023-02-04T21:18:04.219Z,10.46
2023-02-04T21:19:04.169Z,10.66
2023-02-04T21:20:04.246Z,9.26
2023-02-04T21:21:04.184Z,9.52
2023-02-04T21:22:04.171Z,8.44
2023-02-04T21:23:04.158Z,8.80
2023-02-04T21:24:04.191Z,8.66
2023-02-04T21:25:04.156Z,8.45
2023-02-04T21:26:04.151Z,9.92
2023-02-04T21:27:04.160Z,9.61
2023-02-04T21:28:04.146Z,10.08
2023-02-04T21:29:04.129Z,8.03
2023-02-04T21:30:04.126Z,9.24